sensor_id;sensor_type;location;lat;lon;timestamp;pressure;altitude;pressure_sealevel;temperature;humidity
62557;BME280;48612;50.742;-1.226;2022-07-06T00:01:27;103004.47;;;16.14;100.00
62557;BME280;48612;50.742;-1.226;2022-07-06T00:03:53;103006.31;;;16.14;100.00
62557;BME280;48612;50.742;-1.226;2022-07-06T00:06:19;103007.13;;;16.14;100.00
62557;BME280;48612;50.742;-1.226;2022-07-06T00:08:44;103009.81;;;16.14;100.00
62557;BME280;48612;50.742;-1.226;2022-07-06T00:11:10;103003.84;;;16.12;100.00
62557;BME280;48612;50.742;-1.226;2022-07-06T00:13:37;103001.16;;;16.12;100.00
62557;BME280;48612;50.742;-1.226;2022-07-06T00:16:03;103005.91;;;16.10;100.00
62557;BME280;48612;50.742;-1.226;2022-07-06T00:18:29;102999.13;;;16.08;100.00
62557;BME280;48612;50.742;-1.226;2022-07-06T00:20:55;103006.28;;;16.07;100.00
62557;BME280;48612;50.742;-1.226;2022-07-06T00:23:27;103009.34;;;16.04;100.00
62557;BME280;48612;50.742;-1.226;2022-07-06T00:25:53;103002.56;;;16.02;100.00
62557;BME280;48612;50.742;-1.226;2022-07-06T00:28:18;103008.13;;;16.00;100.00
62557;BME280;48612;50.742;-1.226;2022-07-06T00:30:44;103007.09;;;16.01;100.00
62557;BME280;48612;50.742;-1.226;2022-07-06T00:33:09;103008.94;;;16.01;100.00
62557;BME280;48612;50.742;-1.226;2022-07-06T00:35:35;103014.06;;;16.02;100.00
62557;BME280;48612;50.742;-1.226;2022-07-06T00:38:01;103016.53;;;16.04;100.00
62557;BME280;48612;50.742;-1.226;2022-07-06T00:40:27;103005.03;;;16.03;100.00
62557;BME280;48612;50.742;-1.226;2022-07-06T00:42:52;103015.06;;;16.01;100.00
62557;BME280;48612;50.742;-1.226;2022-07-06T00:45:18;103017.75;;;16.01;100.00
62557;BME280;48612;50.742;-1.226;2022-07-06T00:47:44;103024.91;;;16.01;100.00
62557;BME280;48612;50.742;-1.226;2022-07-06T00:50:12;103026.34;;;16.03;100.00
62557;BME280;48612;50.742;-1.226;2022-07-06T00:52:52;103027.19;;;16.04;100.00
62557;BME280;48612;50.742;-1.226;2022-07-06T00:55:21;103030.47;;;16.06;100.00
62557;BME280;48612;50.742;-1.226;2022-07-06T00:57:47;103029.03;;;16.10;100.00
62557;BME280;48612;50.742;-1.226;2022-07-06T01:00:15;103030.69;;;16.11;100.00
62557;BME280;48612;50.742;-1.226;2022-07-06T01:02:41;103033.78;;;16.14;100.00
62557;BME280;48612;50.742;-1.226;2022-07-06T01:05:12;103028.88;;;16.18;100.00
62557;BME280;48612;50.742;-1.226;2022-07-06T01:07:39;103023.34;;;16.20;100.00
62557;BME280;48612;50.742;-1.226;2022-07-06T01:10:08;103014.53;;;16.19;100.00
62557;BME280;48612;50.742;-1.226;2022-07-06T01:12:34;103028.28;;;16.23;100.00
62557;BME280;48612;50.742;-1.226;2022-07-06T01:15:05;103032.56;;;16.24;100.00
62557;BME280;48612;50.742;-1.226;2022-07-06T01:17:33;103022.13;;;16.22;100.00
62557;BME280;48612;50.742;-1.226;2022-07-06T01:22:37;103022.94;;;16.23;100.00
62557;BME280;48612;50.742;-1.226;2022-07-06T01:25:03;103023.75;;;16.23;100.00
62557;BME280;48612;50.742;-1.226;2022-07-06T01:27:30;103021.91;;;16.24;100.00
62557;BME280;48612;50.742;-1.226;2022-07-06T01:29:55;103014.94;;;16.23;100.00
62557;BME280;48612;50.742;-1.226;2022-07-06T01:32:21;103025.81;;;16.21;100.00
62557;BME280;48612;50.742;-1.226;2022-07-06T01:34:46;103023.16;;;16.21;100.00
62557;BME280;48612;50.742;-1.226;2022-07-06T01:37:12;103021.88;;;16.17;100.00
62557;BME280;48612;50.742;-1.226;2022-07-06T01:39:37;103029.47;;;16.20;100.00
62557;BME280;48612;50.742;-1.226;2022-07-06T01:42:03;103025.19;;;16.19;100.00
62557;BME280;48612;50.742;-1.226;2022-07-06T01:44:28;103012.06;;;16.18;100.00
62557;BME280;48612;50.742;-1.226;2022-07-06T01:46:55;103011.22;;;16.17;100.00
62557;BME280;48612;50.742;-1.226;2022-07-06T01:49:20;103016.75;;;16.16;100.00
62557;BME280;48612;50.742;-1.226;2022-07-06T01:51:46;103019.66;;;16.14;100.00
62557;BME280;48612;50.742;-1.226;2022-07-06T01:54:11;103010.19;;;16.11;100.00
62557;BME280;48612;50.742;-1.226;2022-07-06T01:56:37;103007.53;;;16.11;100.00
62557;BME280;48612;50.742;-1.226;2022-07-06T01:59:02;103001.38;;;16.11;100.00
62557;BME280;48612;50.742;-1.226;2022-07-06T02:01:28;102998.09;;;16.09;100.00
62557;BME280;48612;50.742;-1.226;2022-07-06T02:03:53;103001.78;;;16.08;100.00
62557;BME280;48612;50.742;-1.226;2022-07-06T02:06:19;102987.81;;;16.06;100.00
62557;BME280;48612;50.742;-1.226;2022-07-06T02:08:47;102994.38;;;16.03;100.00
62557;BME280;48612;50.742;-1.226;2022-07-06T02:11:12;102996.03;;;16.04;100.00
62557;BME280;48612;50.742;-1.226;2022-07-06T02:13:38;102998.28;;;16.01;100.00
62557;BME280;48612;50.742;-1.226;2022-07-06T02:16:07;102994.16;;;15.98;100.00
62557;BME280;48612;50.742;-1.226;2022-07-06T02:18:32;102998.47;;;15.99;100.00
62557;BME280;48612;50.742;-1.226;2022-07-06T02:20:58;102994.38;;;15.97;100.00
62557;BME280;48612;50.742;-1.226;2022-07-06T02:23:23;102991.25;;;15.93;100.00
62557;BME280;48612;50.742;-1.226;2022-07-06T02:25:49;102998.25;;;15.94;100.00
62557;BME280;48612;50.742;-1.226;2022-07-06T02:28:14;102995.75;;;15.93;100.00
62557;BME280;48612;50.742;-1.226;2022-07-06T02:30:40;102995.16;;;15.90;100.00
62557;BME280;48612;50.742;-1.226;2022-07-06T02:33:05;103001.31;;;15.91;100.00
62557;BME280;48612;50.742;-1.226;2022-07-06T02:35:31;103000.50;;;15.90;100.00
62557;BME280;48612;50.742;-1.226;2022-07-06T02:37:56;102999.84;;;15.88;100.00
62557;BME280;48612;50.742;-1.226;2022-07-06T02:40:22;103002.50;;;15.88;100.00
62557;BME280;48612;50.742;-1.226;2022-07-06T02:42:47;102999.25;;;15.86;100.00
62557;BME280;48612;50.742;-1.226;2022-07-06T02:45:12;103001.06;;;15.86;100.00
62557;BME280;48612;50.742;-1.226;2022-07-06T02:47:38;102996.97;;;15.83;100.00
62557;BME280;48612;50.742;-1.226;2022-07-06T02:50:05;102996.16;;;15.83;100.00
62557;BME280;48612;50.742;-1.226;2022-07-06T02:52:30;102991.00;;;15.81;100.00
62557;BME280;48612;50.742;-1.226;2022-07-06T02:54:56;102986.50;;;15.82;100.00
62557;BME280;48612;50.742;-1.226;2022-07-06T02:57:21;102988.56;;;15.80;100.00
62557;BME280;48612;50.742;-1.226;2022-07-06T02:59:47;102986.91;;;15.79;100.00
62557;BME280;48612;50.742;-1.226;2022-07-06T03:02:18;102979.91;;;15.71;100.00
62557;BME280;48612;50.742;-1.226;2022-07-06T03:04:43;102989.25;;;15.60;100.00
62557;BME280;48612;50.742;-1.226;2022-07-06T03:07:09;102982.63;;;15.50;100.00
62557;BME280;48612;50.742;-1.226;2022-07-06T03:09:35;102993.00;;;15.38;100.00
62557;BME280;48612;50.742;-1.226;2022-07-06T03:12:00;102986.19;;;15.29;100.00
62557;BME280;48612;50.742;-1.226;2022-07-06T03:14:26;102976.13;;;15.24;100.00
62557;BME280;48612;50.742;-1.226;2022-07-06T03:16:52;102979.38;;;15.19;100.00
62557;BME280;48612;50.742;-1.226;2022-07-06T03:19:17;102978.34;;;15.20;100.00
62557;BME280;48612;50.742;-1.226;2022-07-06T03:21:43;102976.06;;;15.11;100.00
62557;BME280;48612;50.742;-1.226;2022-07-06T03:24:08;102981.69;;;15.01;100.00
62557;BME280;48612;50.742;-1.226;2022-07-06T03:26:34;102988.16;;;14.92;100.00
62557;BME280;48612;50.742;-1.226;2022-07-06T03:29:00;102987.69;;;14.82;100.00
62557;BME280;48612;50.742;-1.226;2022-07-06T03:31:26;102982.69;;;14.72;100.00
62557;BME280;48612;50.742;-1.226;2022-07-06T03:33:51;102990.16;;;14.62;100.00
62557;BME280;48612;50.742;-1.226;2022-07-06T03:36:17;102990.28;;;14.54;100.00
62557;BME280;48612;50.742;-1.226;2022-07-06T03:38:43;102994.03;;;14.44;100.00
62557;BME280;48612;50.742;-1.226;2022-07-06T03:41:08;103005.91;;;14.42;100.00
62557;BME280;48612;50.742;-1.226;2022-07-06T03:43:34;102998.47;;;14.37;100.00
62557;BME280;48612;50.742;-1.226;2022-07-06T03:45:59;103008.66;;;14.34;100.00
62557;BME280;48612;50.742;-1.226;2022-07-06T03:48:25;102995.28;;;14.27;100.00
62557;BME280;48612;50.742;-1.226;2022-07-06T03:50:50;102989.09;;;14.20;100.00
62557;BME280;48612;50.742;-1.226;2022-07-06T03:53:16;102998.25;;;14.17;100.00
62557;BME280;48612;50.742;-1.226;2022-07-06T03:55:41;102996.97;;;14.13;100.00
62557;BME280;48612;50.742;-1.226;2022-07-06T03:58:07;102987.09;;;14.07;100.00
62557;BME280;48612;50.742;-1.226;2022-07-06T04:00:32;102986.03;;;14.01;100.00
62557;BME280;48612;50.742;-1.226;2022-07-06T04:03:00;102987.22;;;13.99;100.00
62557;BME280;48612;50.742;-1.226;2022-07-06T04:05:25;102983.66;;;13.92;100.00
62557;BME280;48612;50.742;-1.226;2022-07-06T04:07:51;102981.38;;;13.89;100.00
62557;BME280;48612;50.742;-1.226;2022-07-06T04:10:16;102987.03;;;13.86;100.00
62557;BME280;48612;50.742;-1.226;2022-07-06T04:12:43;102989.44;;;13.81;100.00
62557;BME280;48612;50.742;-1.226;2022-07-06T04:15:10;102983.47;;;13.78;100.00
62557;BME280;48612;50.742;-1.226;2022-07-06T04:17:36;102994.47;;;13.75;100.00
62557;BME280;48612;50.742;-1.226;2022-07-06T04:20:17;103001.44;;;13.76;100.00
62557;BME280;48612;50.742;-1.226;2022-07-06T04:22:42;103004.72;;;13.78;100.00
62557;BME280;48612;50.742;-1.226;2022-07-06T04:25:08;103004.72;;;13.78;100.00
62557;BME280;48612;50.742;-1.226;2022-07-06T04:27:34;103011.75;;;13.86;100.00
62557;BME280;48612;50.742;-1.226;2022-07-06T04:30:01;103014.34;;;13.94;100.00
62557;BME280;48612;50.742;-1.226;2022-07-06T04:32:26;103010.75;;;14.02;100.00
62557;BME280;48612;50.742;-1.226;2022-07-06T04:34:52;103019.41;;;14.11;100.00
62557;BME280;48612;50.742;-1.226;2022-07-06T04:37:17;103021.41;;;14.23;100.00
62557;BME280;48612;50.742;-1.226;2022-07-06T04:39:43;103014.34;;;14.31;100.00
62557;BME280;48612;50.742;-1.226;2022-07-06T04:42:08;103014.41;;;14.37;100.00
62557;BME280;48612;50.742;-1.226;2022-07-06T04:44:33;103007.91;;;14.40;100.00
62557;BME280;48612;50.742;-1.226;2022-07-06T04:46:59;102994.25;;;14.43;100.00
62557;BME280;48612;50.742;-1.226;2022-07-06T04:49:25;102994.69;;;14.46;100.00
62557;BME280;48612;50.742;-1.226;2022-07-06T04:51:51;103001.00;;;14.60;100.00
62557;BME280;48612;50.742;-1.226;2022-07-06T04:54:17;103008.22;;;14.66;100.00
62557;BME280;48612;50.742;-1.226;2022-07-06T04:56:42;103007.31;;;14.59;100.00
62557;BME280;48612;50.742;-1.226;2022-07-06T04:59:08;103002.38;;;14.56;100.00
62557;BME280;48612;50.742;-1.226;2022-07-06T05:01:33;103018.72;;;14.53;100.00
62557;BME280;48612;50.742;-1.226;2022-07-06T05:03:59;103019.22;;;14.48;100.00
62557;BME280;48612;50.742;-1.226;2022-07-06T05:06:24;103016.13;;;14.45;100.00
62557;BME280;48612;50.742;-1.226;2022-07-06T05:08:50;103018.16;;;14.43;100.00
62557;BME280;48612;50.742;-1.226;2022-07-06T05:11:16;103016.91;;;14.39;100.00
62557;BME280;48612;50.742;-1.226;2022-07-06T05:13:41;103019.28;;;14.34;100.00
62557;BME280;48612;50.742;-1.226;2022-07-06T05:16:07;103024.34;;;14.29;100.00
62557;BME280;48612;50.742;-1.226;2022-07-06T05:18:33;103014.72;;;14.28;100.00
62557;BME280;48612;50.742;-1.226;2022-07-06T05:20:58;103020.03;;;14.28;100.00
62557;BME280;48612;50.742;-1.226;2022-07-06T05:23:24;103020.31;;;14.33;100.00
62557;BME280;48612;50.742;-1.226;2022-07-06T05:25:49;103017.88;;;14.38;100.00
62557;BME280;48612;50.742;-1.226;2022-07-06T05:28:14;103008.72;;;14.40;100.00
62557;BME280;48612;50.742;-1.226;2022-07-06T05:30:40;103019.63;;;14.45;100.00
62557;BME280;48612;50.742;-1.226;2022-07-06T05:33:05;103015.03;;;14.54;100.00
62557;BME280;48612;50.742;-1.226;2022-07-06T05:35:31;103022.38;;;14.74;100.00
62557;BME280;48612;50.742;-1.226;2022-07-06T05:37:56;103004.03;;;15.07;100.00
62557;BME280;48612;50.742;-1.226;2022-07-06T05:40:22;103015.47;;;15.29;100.00
62557;BME280;48612;50.742;-1.226;2022-07-06T05:42:47;103003.72;;;15.51;100.00
62557;BME280;48612;50.742;-1.226;2022-07-06T05:45:13;103011.50;;;15.81;100.00
62557;BME280;48612;50.742;-1.226;2022-07-06T05:47:39;103006.31;;;16.14;100.00
62557;BME280;48612;50.742;-1.226;2022-07-06T05:50:23;103004.31;;;16.36;100.00
62557;BME280;48612;50.742;-1.226;2022-07-06T05:53:00;103007.84;;;16.50;100.00
62557;BME280;48612;50.742;-1.226;2022-07-06T05:55:26;103005.56;;;16.53;100.00
62557;BME280;48612;50.742;-1.226;2022-07-06T05:57:51;102996.59;;;16.81;100.00
62557;BME280;48612;50.742;-1.226;2022-07-06T06:00:20;102988.59;;;16.81;100.00
62557;BME280;48612;50.742;-1.226;2022-07-06T06:02:46;102990.84;;;17.11;100.00
62557;BME280;48612;50.742;-1.226;2022-07-06T06:05:13;102984.06;;;17.15;100.00
62557;BME280;48612;50.742;-1.226;2022-07-06T06:07:39;102991.19;;;17.47;100.00
62557;BME280;48612;50.742;-1.226;2022-07-06T06:10:11;102989.91;;;17.76;100.00
62557;BME280;48612;50.742;-1.226;2022-07-06T06:12:37;103000.50;;;17.96;100.00
62557;BME280;48612;50.742;-1.226;2022-07-06T06:15:04;102990.31;;;18.18;100.00
62557;BME280;48612;50.742;-1.226;2022-07-06T06:17:30;103007.72;;;18.34;100.00
62557;BME280;48612;50.742;-1.226;2022-07-06T06:19:56;102996.22;;;18.27;100.00
62557;BME280;48612;50.742;-1.226;2022-07-06T06:22:22;102997.44;;;18.31;100.00
62557;BME280;48612;50.742;-1.226;2022-07-06T06:24:48;102991.78;;;18.46;100.00
62557;BME280;48612;50.742;-1.226;2022-07-06T06:27:13;102983.28;;;18.56;100.00
62557;BME280;48612;50.742;-1.226;2022-07-06T06:29:39;102982.19;;;18.63;100.00
62557;BME280;48612;50.742;-1.226;2022-07-06T06:32:06;102970.81;;;18.68;100.00
62557;BME280;48612;50.742;-1.226;2022-07-06T06:34:32;102962.56;;;18.76;100.00
62557;BME280;48612;50.742;-1.226;2022-07-06T06:36:57;102971.41;;;18.77;100.00
62557;BME280;48612;50.742;-1.226;2022-07-06T06:39:23;102953.34;;;18.72;100.00
62557;BME280;48612;50.742;-1.226;2022-07-06T06:41:48;102948.38;;;18.76;100.00
62557;BME280;48612;50.742;-1.226;2022-07-06T06:44:14;102952.63;;;18.83;100.00
62557;BME280;48612;50.742;-1.226;2022-07-06T06:47:00;102942.44;;;18.92;100.00
62557;BME280;48612;50.742;-1.226;2022-07-06T06:49:25;102947.28;;;19.02;100.00
62557;BME280;48612;50.742;-1.226;2022-07-06T06:51:52;102955.25;;;19.08;100.00
62557;BME280;48612;50.742;-1.226;2022-07-06T06:54:17;102965.53;;;19.11;100.00
62557;BME280;48612;50.742;-1.226;2022-07-06T06:56:43;102970.81;;;19.18;100.00
62557;BME280;48612;50.742;-1.226;2022-07-06T06:59:09;102970.38;;;19.21;100.00
62557;BME280;48612;50.742;-1.226;2022-07-06T07:01:35;102974.69;;;19.22;100.00
62557;BME280;48612;50.742;-1.226;2022-07-06T07:04:01;102966.66;;;19.22;100.00
62557;BME280;48612;50.742;-1.226;2022-07-06T07:06:26;102971.63;;;19.18;100.00
62557;BME280;48612;50.742;-1.226;2022-07-06T07:08:52;102974.56;;;19.17;100.00
62557;BME280;48612;50.742;-1.226;2022-07-06T07:11:19;102980.72;;;19.17;100.00
62557;BME280;48612;50.742;-1.226;2022-07-06T07:13:44;102981.09;;;19.21;100.00
62557;BME280;48612;50.742;-1.226;2022-07-06T07:16:10;102981.09;;;19.21;100.00
62557;BME280;48612;50.742;-1.226;2022-07-06T07:18:36;102982.13;;;19.20;100.00
62557;BME280;48612;50.742;-1.226;2022-07-06T07:21:02;102980.50;;;19.19;100.00
62557;BME280;48612;50.742;-1.226;2022-07-06T07:23:28;102984.78;;;19.20;100.00
62557;BME280;48612;50.742;-1.226;2022-07-06T07:25:54;102974.56;;;19.17;100.00
62557;BME280;48612;50.742;-1.226;2022-07-06T07:28:20;102978.63;;;19.19;100.00
62557;BME280;48612;50.742;-1.226;2022-07-06T07:30:45;102972.69;;;19.17;100.00
62557;BME280;48612;50.742;-1.226;2022-07-06T07:33:11;102971.63;;;19.18;100.00
62557;BME280;48612;50.742;-1.226;2022-07-06T07:35:37;102981.53;;;19.18;100.00
62557;BME280;48612;50.742;-1.226;2022-07-06T07:38:02;102977.22;;;19.17;100.00
62557;BME280;48612;50.742;-1.226;2022-07-06T07:40:28;102983.03;;;19.14;100.00
62557;BME280;48612;50.742;-1.226;2022-07-06T07:42:55;102978.25;;;19.16;100.00
62557;BME280;48612;50.742;-1.226;2022-07-06T07:45:21;102974.75;;;19.15;100.00
62557;BME280;48612;50.742;-1.226;2022-07-06T07:47:46;102977.22;;;19.17;100.00
62557;BME280;48612;50.742;-1.226;2022-07-06T07:50:12;102974.31;;;19.18;100.00
62557;BME280;48612;50.742;-1.226;2022-07-06T07:52:37;102962.94;;;19.23;100.00
62557;BME280;48612;50.742;-1.226;2022-07-06T07:55:03;102971.63;;;19.37;100.00
62557;BME280;48612;50.742;-1.226;2022-07-06T07:57:29;102970.38;;;19.58;100.00
62557;BME280;48612;50.742;-1.226;2022-07-06T07:59:55;102972.78;;;19.66;100.00
62557;BME280;48612;50.742;-1.226;2022-07-06T08:02:21;102970.94;;;19.66;100.00
62557;BME280;48612;50.742;-1.226;2022-07-06T08:04:46;102966.09;;;19.75;100.00
62557;BME280;48612;50.742;-1.226;2022-07-06T08:07:12;102971.47;;;19.75;100.00
62557;BME280;48612;50.742;-1.226;2022-07-06T08:09:37;102980.50;;;19.92;100.00
62557;BME280;48612;50.742;-1.226;2022-07-06T08:12:03;102973.81;;;20.13;100.00
62557;BME280;48612;50.742;-1.226;2022-07-06T08:14:29;102972.13;;;20.43;100.00
62557;BME280;48612;50.742;-1.226;2022-07-06T08:16:54;102967.91;;;20.77;100.00
62557;BME280;48612;50.742;-1.226;2022-07-06T08:19:20;102958.09;;;20.94;100.00
62557;BME280;48612;50.742;-1.226;2022-07-06T08:21:45;102954.47;;;21.12;100.00
62557;BME280;48612;50.742;-1.226;2022-07-06T08:24:11;102947.91;;;21.31;100.00
62557;BME280;48612;50.742;-1.226;2022-07-06T08:26:37;102946.97;;;21.38;100.00
62557;BME280;48612;50.742;-1.226;2022-07-06T08:29:03;102955.34;;;21.53;100.00
62557;BME280;48612;50.742;-1.226;2022-07-06T08:31:28;102952.53;;;21.60;100.00
62557;BME280;48612;50.742;-1.226;2022-07-06T08:33:55;102951.50;;;21.77;100.00
62557;BME280;48612;50.742;-1.226;2022-07-06T08:36:22;102957.34;;;21.86;100.00
62557;BME280;48612;50.742;-1.226;2022-07-06T08:38:48;102953.44;;;21.65;100.00
62557;BME280;48612;50.742;-1.226;2022-07-06T08:41:15;102954.41;;;21.59;100.00
62557;BME280;48612;50.742;-1.226;2022-07-06T08:43:41;102949.41;;;21.79;100.00
62557;BME280;48612;50.742;-1.226;2022-07-06T08:46:08;102949.94;;;21.93;100.00
62557;BME280;48612;50.742;-1.226;2022-07-06T08:48:36;102949.63;;;21.61;100.00
62557;BME280;48612;50.742;-1.226;2022-07-06T08:51:04;102946.59;;;21.86;100.00
62557;BME280;48612;50.742;-1.226;2022-07-06T08:53:30;102932.41;;;21.91;100.00
62557;BME280;48612;50.742;-1.226;2022-07-06T08:55:55;102927.78;;;21.74;100.00
62557;BME280;48612;50.742;-1.226;2022-07-06T08:58:24;102926.09;;;21.68;100.00
62557;BME280;48612;50.742;-1.226;2022-07-06T09:00:49;102921.94;;;21.49;100.00
62557;BME280;48612;50.742;-1.226;2022-07-06T09:03:15;102907.00;;;21.29;100.00
62557;BME280;48612;50.742;-1.226;2022-07-06T09:05:45;102906.22;;;21.17;100.00
62557;BME280;48612;50.742;-1.226;2022-07-06T09:08:12;102901.19;;;21.09;100.00
62557;BME280;48612;50.742;-1.226;2022-07-06T09:10:38;102909.03;;;21.10;100.00
62557;BME280;48612;50.742;-1.226;2022-07-06T09:13:06;102915.44;;;21.21;100.00
62557;BME280;48612;50.742;-1.226;2022-07-06T09:15:34;102917.38;;;21.49;100.00
62557;BME280;48612;50.742;-1.226;2022-07-06T09:17:59;102918.59;;;21.70;100.00
62557;BME280;48612;50.742;-1.226;2022-07-06T09:20:25;102922.38;;;21.86;100.00
62557;BME280;48612;50.742;-1.226;2022-07-06T09:22:57;102921.28;;;21.99;100.00
62557;BME280;48612;50.742;-1.226;2022-07-06T09:25:24;102921.59;;;22.02;100.00
62557;BME280;48612;50.742;-1.226;2022-07-06T09:27:50;102924.28;;;22.02;100.00
62557;BME280;48612;50.742;-1.226;2022-07-06T09:30:20;102921.63;;;22.19;100.00
62557;BME280;48612;50.742;-1.226;2022-07-06T09:32:48;102915.22;;;22.37;100.00
62557;BME280;48612;50.742;-1.226;2022-07-06T09:35:31;102912.50;;;22.54;100.00
62557;BME280;48612;50.742;-1.226;2022-07-06T09:38:07;102905.47;;;22.70;100.00
62557;BME280;48612;50.742;-1.226;2022-07-06T09:40:42;102911.97;;;22.74;100.00
62557;BME280;48612;50.742;-1.226;2022-07-06T09:43:24;102912.47;;;22.71;100.00
62557;BME280;48612;50.742;-1.226;2022-07-06T09:45:55;102903.16;;;22.79;100.00
62557;BME280;48612;50.742;-1.226;2022-07-06T09:48:27;102903.66;;;22.92;100.00
62557;BME280;48612;50.742;-1.226;2022-07-06T09:50:55;102898.91;;;22.83;100.00
62557;BME280;48612;50.742;-1.226;2022-07-06T09:53:25;102900.72;;;22.77;100.00
62557;BME280;48612;50.742;-1.226;2022-07-06T09:55:54;102898.81;;;22.78;100.00
62557;BME280;48612;50.742;-1.226;2022-07-06T09:58:20;102903.66;;;22.92;100.00
62557;BME280;48612;50.742;-1.226;2022-07-06T10:00:47;102893.88;;;23.08;100.00
62557;BME280;48612;50.742;-1.226;2022-07-06T10:03:14;102890.13;;;23.09;100.00
62557;BME280;48612;50.742;-1.226;2022-07-06T10:05:42;102901.97;;;23.08;100.00
62557;BME280;48612;50.742;-1.226;2022-07-06T10:08:08;102891.34;;;23.45;100.00
62557;BME280;48612;50.742;-1.226;2022-07-06T10:10:36;102902.78;;;23.80;100.00
62557;BME280;48612;50.742;-1.226;2022-07-06T10:13:03;102892.16;;;23.95;100.00
62557;BME280;48612;50.742;-1.226;2022-07-06T10:15:32;102886.88;;;24.10;100.00
62557;BME280;48612;50.742;-1.226;2022-07-06T10:18:00;102886.53;;;24.02;100.00
62557;BME280;48612;50.742;-1.226;2022-07-06T10:20:33;102882.13;;;23.90;100.00
62557;BME280;48612;50.742;-1.226;2022-07-06T10:23:05;102876.88;;;24.11;100.00
62557;BME280;48612;50.742;-1.226;2022-07-06T10:25:33;102874.38;;;23.99;100.00
62557;BME280;48612;50.742;-1.226;2022-07-06T10:27:59;102871.84;;;24.20;100.00
62557;BME280;48612;50.742;-1.226;2022-07-06T10:30:28;102857.91;;;24.38;100.00
62557;BME280;48612;50.742;-1.226;2022-07-06T10:33:14;102852.50;;;24.75;100.00
62557;BME280;48612;50.742;-1.226;2022-07-06T10:36:00;102857.47;;;24.99;100.00
62557;BME280;48612;50.742;-1.226;2022-07-06T10:38:32;102858.81;;;24.96;100.00
62557;BME280;48612;50.742;-1.226;2022-07-06T10:41:18;102857.13;;;25.78;100.00
62557;BME280;48612;50.742;-1.226;2022-07-06T10:43:55;102850.31;;;26.42;100.00
62557;BME280;48612;50.742;-1.226;2022-07-06T10:46:23;102859.00;;;26.24;100.00
62557;BME280;48612;50.742;-1.226;2022-07-06T10:48:56;102834.81;;;26.63;100.00
62557;BME280;48612;50.742;-1.226;2022-07-06T10:51:24;102839.16;;;28.03;100.00
62557;BME280;48612;50.742;-1.226;2022-07-06T10:54:15;102829.16;;;30.71;100.00
62557;BME280;48612;50.742;-1.226;2022-07-06T10:56:52;102826.63;;;30.89;100.00
62557;BME280;48612;50.742;-1.226;2022-07-06T10:59:22;102825.66;;;29.31;100.00
62557;BME280;48612;50.742;-1.226;2022-07-06T11:02:21;102823.84;;;27.83;100.00
62557;BME280;48612;50.742;-1.226;2022-07-06T11:05:42;102821.50;;;26.82;100.00
62557;BME280;48612;50.742;-1.226;2022-07-06T11:08:10;102816.75;;;26.28;100.00
62557;BME280;48612;50.742;-1.226;2022-07-06T11:10:48;102828.19;;;25.99;100.00
62557;BME280;48612;50.742;-1.226;2022-07-06T11:13:31;102825.72;;;25.62;100.00
62557;BME280;48612;50.742;-1.226;2022-07-06T11:16:02;102830.00;;;25.43;100.00
62557;BME280;48612;50.742;-1.226;2022-07-06T11:18:39;102817.34;;;25.53;100.00
62557;BME280;48612;50.742;-1.226;2022-07-06T11:21:19;102817.03;;;25.60;100.00
62557;BME280;48612;50.742;-1.226;2022-07-06T11:24:25;102817.34;;;25.53;100.00
62557;BME280;48612;50.742;-1.226;2022-07-06T11:26:52;102821.38;;;25.51;100.00
62557;BME280;48612;50.742;-1.226;2022-07-06T11:29:20;102816.22;;;25.34;100.00
62557;BME280;48612;50.742;-1.226;2022-07-06T11:31:48;102817.03;;;25.34;100.00
62557;BME280;48612;50.742;-1.226;2022-07-06T11:34:25;102806.75;;;25.26;100.00
62557;BME280;48612;50.742;-1.226;2022-07-06T11:37:10;102815.06;;;25.09;100.00
62557;BME280;48612;50.742;-1.226;2022-07-06T11:39:45;102807.44;;;24.96;100.00
62557;BME280;48612;50.742;-1.226;2022-07-06T11:42:14;102812.56;;;24.93;100.00
62557;BME280;48612;50.742;-1.226;2022-07-06T11:44:43;102802.88;;;25.02;100.00
62557;BME280;48612;50.742;-1.226;2022-07-06T11:47:12;102798.09;;;25.24;100.00
62557;BME280;48612;50.742;-1.226;2022-07-06T11:49:40;102800.81;;;25.55;100.00
62557;BME280;48612;50.742;-1.226;2022-07-06T11:52:12;102802.69;;;25.34;100.00
62557;BME280;48612;50.742;-1.226;2022-07-06T11:54:38;102802.19;;;25.57;100.00
62557;BME280;48612;50.742;-1.226;2022-07-06T11:57:04;102792.19;;;25.84;100.00
62557;BME280;48612;50.742;-1.226;2022-07-06T11:59:32;102799.47;;;26.03;100.00
62557;BME280;48612;50.742;-1.226;2022-07-06T12:02:02;102790.75;;;26.22;100.00
62557;BME280;48612;50.742;-1.226;2022-07-06T12:04:30;102788.31;;;26.31;100.00
62557;BME280;48612;50.742;-1.226;2022-07-06T12:07:01;102786.72;;;26.24;100.00
62557;BME280;48612;50.742;-1.226;2022-07-06T12:09:32;102801.63;;;26.17;100.00
62557;BME280;48612;50.742;-1.226;2022-07-06T12:11:58;102793.50;;;26.01;100.00
62557;BME280;48612;50.742;-1.226;2022-07-06T12:14:27;102799.78;;;25.82;100.00
62557;BME280;48612;50.742;-1.226;2022-07-06T12:16:53;102801.38;;;25.57;100.00
62557;BME280;48612;50.742;-1.226;2022-07-06T12:19:21;102800.00;;;25.39;100.00
62557;BME280;48612;50.742;-1.226;2022-07-06T12:21:49;102798.91;;;25.25;100.00
62557;BME280;48612;50.742;-1.226;2022-07-06T12:24:22;102794.84;;;25.12;100.00
62557;BME280;48612;50.742;-1.226;2022-07-06T12:26:49;102799.91;;;24.98;100.00
62557;BME280;48612;50.742;-1.226;2022-07-06T12:29:15;102798.78;;;24.89;100.00
62557;BME280;48612;50.742;-1.226;2022-07-06T12:36:44;102777.69;;;24.91;100.00
62557;BME280;48612;50.742;-1.226;2022-07-06T12:39:12;102776.13;;;25.10;100.00
62557;BME280;48612;50.742;-1.226;2022-07-06T12:44:22;102788.13;;;25.40;100.00